Time;durP1;ratioP1;P1;durP2;ratioP2;P2;SDS_P1;SDS_P2;PMS_P1;PMS_P2;Temp;Humidity;BMP_temperature;BMP_pressure;BME280_temperature;BME280_humidity;BME280_pressure;Samples;Min_cycle;Max_cycle;Signal;HPM_P1;HPM_P2
2023/12/02 00:00:23;;;;;;;5.50;5.10;;;18.30;63.20;;;;;;4968325;28;20432;-80
2023/12/02 00:02:49;;;;;;;5.05;4.68;;;18.30;63.30;;;;;;4972392;28;20061;-80
2023/12/02 00:05:14;;;;;;;4.85;4.40;;;18.30;63.30;;;;;;4971454;28;20374;-79
2023/12/02 00:07:40;;;;;;;4.60;4.20;;;18.30;63.30;;;;;;4970919;28;20051;-80
2023/12/02 00:10:06;;;;;;;4.28;3.97;;;18.30;63.30;;;;;;4951387;28;20031;-79
2023/12/02 00:12:32;;;;;;;5.22;4.82;;;18.30;63.40;;;;;;4967312;28;20054;-81
2023/12/02 00:14:57;;;;;;;4.63;4.32;;;18.20;63.40;;;;;;4967023;28;20026;-81
2023/12/02 00:17:23;;;;;;;4.90;4.50;;;18.20;63.50;;;;;;4968216;28;20126;-79
2023/12/02 00:19:48;;;;;;;4.47;4.18;;;18.20;63.50;;;;;;4968913;28;20654;-78
2023/12/02 00:22:14;;;;;;;4.22;3.92;;;18.20;63.70;;;;;;4968504;28;20444;-78
2023/12/02 00:24:39;;;;;;;4.68;4.38;;;18.10;63.50;;;;;;4985345;28;20046;-79
2023/12/02 00:27:05;;;;;;;4.55;4.20;;;18.10;63.60;;;;;;4968734;28;20054;-79
2023/12/02 00:29:30;;;;;;;4.72;4.32;;;18.10;63.60;;;;;;4968263;28;20041;-79
2023/12/02 00:31:59;;;;;;;4.63;4.22;;;18.10;63.60;;;;;;4971353;28;20062;-78
2023/12/02 00:34:24;;;;;;;4.63;4.32;;;18.10;63.80;;;;;;4970939;28;20041;-79
2023/12/02 00:36:50;;;;;;;4.40;4.10;;;18.00;63.70;;;;;;4969950;28;20042;-78
2023/12/02 00:39:15;;;;;;;4.07;3.80;;;18.00;63.80;;;;;;4967817;28;20574;-79
2023/12/02 00:41:41;;;;;;;3.78;3.53;;;18.00;63.80;;;;;;4968023;28;20047;-78
2023/12/02 00:44:07;;;;;;;4.00;3.70;;;18.00;63.90;;;;;;4982264;28;20125;-79
2023/12/02 00:46:32;;;;;;;4.20;3.90;;;18.00;63.90;;;;;;4969338;28;20045;-79
2023/12/02 00:48:58;;;;;;;4.38;3.97;;;18.00;63.80;;;;;;4968516;28;20046;-81
2023/12/02 00:51:23;;;;;;;4.18;3.60;;;17.90;63.90;;;;;;4969420;28;20133;-80
2023/12/02 00:53:49;;;;;;;3.80;3.60;;;17.90;63.90;;;;;;4984939;28;20042;-81
2023/12/02 00:56:16;;;;;;;3.65;3.35;;;17.90;63.90;;;;;;4967509;28;20739;-81
2023/12/02 00:58:41;;;;;;;4.25;4.00;;;17.90;64.00;;;;;;4963614;28;20081;-81
2023/12/02 01:01:08;;;;;;;3.55;3.35;;;17.80;63.90;;;;;;4969154;28;20063;-80
2023/12/02 01:03:33;;;;;;;3.42;3.22;;;17.90;64.00;;;;;;4968495;28;20042;-80
2023/12/02 01:05:59;;;;;;;3.72;3.53;;;17.80;64.00;;;;;;4981876;28;20049;-79
2023/12/02 01:08:24;;;;;;;3.05;2.85;;;17.80;64.00;;;;;;4968896;28;20394;-79
2023/12/02 01:10:50;;;;;;;3.20;3.00;;;17.80;64.00;;;;;;4970260;28;20568;-80
2023/12/02 01:13:15;;;;;;;3.70;3.40;;;17.80;64.00;;;;;;4968436;28;20412;-79
2023/12/02 01:15:41;;;;;;;3.45;3.25;;;17.70;64.10;;;;;;4967862;28;20105;-79
2023/12/02 01:18:06;;;;;;;3.30;3.10;;;17.70;64.00;;;;;;4969112;28;20086;-80
2023/12/02 01:20:32;;;;;;;3.28;3.08;;;17.70;64.00;;;;;;4968191;28;20077;-80
2023/12/02 01:22:58;;;;;;;3.20;3.00;;;17.70;63.70;;;;;;4967258;28;20069;-79
2023/12/02 01:25:23;;;;;;;3.45;3.25;;;17.70;63.50;;;;;;4968016;28;20485;-78
2023/12/02 01:27:49;;;;;;;3.20;3.00;;;17.70;63.70;;;;;;4967372;28;20398;-78
2023/12/02 01:30:14;;;;;;;3.33;3.10;;;17.70;63.80;;;;;;4967092;28;20121;-79
2023/12/02 01:32:40;;;;;;;3.15;2.95;;;17.70;63.70;;;;;;4967132;28;20058;-79
2023/12/02 01:35:06;;;;;;;3.45;3.25;;;17.70;62.90;;;;;;4969997;28;20441;-79
2023/12/02 01:37:31;;;;;;;3.13;2.92;;;17.70;63.00;;;;;;4966445;28;20054;-79
2023/12/02 01:39:57;;;;;;;3.22;3.03;;;17.60;62.60;;;;;;4965729;28;20065;-80
2023/12/02 01:42:22;;;;;;;2.97;2.78;;;17.60;63.20;;;;;;4965744;28;20054;-80
2023/12/02 01:44:48;;;;;;;3.10;2.90;;;17.60;62.40;;;;;;4969029;28;20513;-80
2023/12/02 01:47:13;;;;;;;3.15;2.95;;;17.60;62.50;;;;;;4965338;28;20390;-80
2023/12/02 01:49:39;;;;;;;3.10;2.90;;;17.60;62.70;;;;;;4968329;28;20138;-80
2023/12/02 01:52:05;;;;;;;2.83;2.63;;;17.60;62.40;;;;;;4964939;28;20047;-79
2023/12/02 01:54:30;;;;;;;3.10;2.90;;;17.60;62.40;;;;;;4966867;28;20039;-79
2023/12/02 01:56:56;;;;;;;3.22;3.03;;;17.60;62.40;;;;;;4968152;28;20050;-80
2023/12/02 01:59:22;;;;;;;2.83;2.63;;;17.50;62.50;;;;;;4967990;28;20047;-80
2023/12/02 02:01:48;;;;;;;2.40;2.20;;;17.50;62.90;;;;;;4967728;28;20051;-80
2023/12/02 02:04:13;;;;;;;2.65;2.45;;;17.50;62.50;;;;;;4967032;28;20042;-79
2023/12/02 02:06:39;;;;;;;2.67;2.47;;;17.50;62.50;;;;;;4967098;28;20070;-79
2023/12/02 02:09:04;;;;;;;2.70;2.50;;;17.50;63.20;;;;;;4965850;28;20066;-79
2023/12/02 02:11:30;;;;;;;2.58;2.47;;;17.50;62.50;;;;;;4964681;28;20047;-79
2023/12/02 02:13:56;;;;;;;2.83;2.63;;;17.50;62.60;;;;;;4968957;28;20027;-79
2023/12/02 02:16:22;;;;;;;2.10;2.00;;;17.40;63.40;;;;;;4967606;28;20131;-79
2023/12/02 02:18:47;;;;;;;2.63;2.42;;;17.40;62.60;;;;;;4967491;28;20042;-79
2023/12/02 02:21:22;;;;;;;2.63;2.42;;;17.40;62.70;;;;;;4966740;28;20046;-79
2023/12/02 02:23:47;;;;;;;2.42;2.22;;;17.40;62.60;;;;;;4968049;28;20051;-79
2023/12/02 02:26:13;;;;;;;2.40;2.20;;;17.40;62.70;;;;;;4968658;28;20058;-79
2023/12/02 02:28:38;;;;;;;2.60;2.40;;;17.40;62.90;;;;;;4968302;28;20049;-79
2023/12/02 02:31:04;;;;;;;2.45;2.35;;;17.40;63.70;;;;;;4967805;28;20381;-78
2023/12/02 02:33:31;;;;;;;2.58;2.47;;;17.40;62.90;;;;;;4962102;28;20057;-79
2023/12/02 02:35:57;;;;;;;2.63;2.47;;;17.30;62.80;;;;;;4966812;28;20527;-79
2023/12/02 02:38:24;;;;;;;2.15;2.05;;;17.30;63.20;;;;;;4969542;28;20066;-80
2023/12/02 02:40:49;;;;;;;2.08;1.98;;;17.30;63.00;;;;;;4967964;28;20678;-80
2023/12/02 02:43:15;;;;;;;2.40;2.30;;;17.30;63.00;;;;;;4964516;28;20042;-79
2023/12/02 02:45:40;;;;;;;2.38;2.28;;;17.30;63.10;;;;;;4966555;28;20508;-79
2023/12/02 02:48:07;;;;;;;2.20;2.10;;;17.30;63.10;;;;;;4965580;28;20431;-80
2023/12/02 02:50:32;;;;;;;2.83;2.63;;;17.30;63.10;;;;;;4963841;28;21102;-79
2023/12/02 02:52:58;;;;;;;2.92;2.72;;;17.20;63.10;;;;;;4953104;28;20075;-80
2023/12/02 02:55:24;;;;;;;2.30;2.20;;;17.20;63.10;;;;;;4961570;28;20042;-80
2023/12/02 02:57:49;;;;;;;2.17;2.08;;;17.20;63.20;;;;;;4965445;28;20493;-79
2023/12/02 03:00:15;;;;;;;1.98;1.88;;;17.20;63.20;;;;;;4965240;28;20440;-80
2023/12/02 03:02:41;;;;;;;2.08;1.98;;;17.20;63.20;;;;;;4967085;28;20031;-80
2023/12/02 03:05:09;;;;;;;2.15;2.05;;;17.20;63.20;;;;;;4967302;28;20042;-80
2023/12/02 03:07:35;;;;;;;1.83;1.73;;;17.20;63.30;;;;;;4966338;28;20321;-80
2023/12/02 03:10:00;;;;;;;2.10;2.00;;;17.20;63.50;;;;;;4966307;28;20716;-80
2023/12/02 03:12:26;;;;;;;2.30;2.10;;;17.20;64.20;;;;;;4966209;28;20046;-79
2023/12/02 03:14:52;;;;;;;2.25;2.13;;;17.10;63.30;;;;;;4965732;28;20046;-80
2023/12/02 03:17:18;;;;;;;2.10;2.00;;;17.20;63.40;;;;;;4966701;28;20050;-80
2023/12/02 03:19:43;;;;;;;2.65;1.80;;;17.10;63.40;;;;;;4967826;28;20133;-82
2023/12/02 03:22:09;;;;;;;1.65;1.55;;;17.10;63.40;;;;;;4968154;28;20130;-80
2023/12/02 03:24:35;;;;;;;1.98;1.88;;;17.10;63.40;;;;;;4963253;28;20053;-79
2023/12/02 03:27:02;;;;;;;1.90;1.80;;;17.10;63.50;;;;;;4965946;28;20070;-80
2023/12/02 03:29:28;;;;;;;1.90;1.80;;;17.10;63.40;;;;;;4968587;28;20155;-79
2023/12/02 03:31:53;;;;;;;1.98;1.88;;;17.00;63.50;;;;;;4968771;28;20056;-79
2023/12/02 03:34:19;;;;;;;1.90;1.80;;;17.10;63.60;;;;;;4968830;28;20138;-80
2023/12/02 03:36:44;;;;;;;1.85;1.75;;;17.10;64.40;;;;;;4970639;28;20775;-79
2023/12/02 03:39:12;;;;;;;1.90;1.80;;;17.10;63.50;;;;;;4971785;28;20053;-79
2023/12/02 03:41:39;;;;;;;2.00;1.90;;;17.10;63.60;;;;;;4970996;28;20039;-79
2023/12/02 03:44:05;;;;;;;2.38;2.28;;;17.00;63.60;;;;;;4970234;28;20054;-79
2023/12/02 03:46:30;;;;;;;1.75;1.65;;;17.00;63.60;;;;;;4966158;28;20050;-79
2023/12/02 03:48:56;;;;;;;2.10;2.00;;;17.00;63.60;;;;;;4969677;28;20058;-79
2023/12/02 03:51:23;;;;;;;2.00;1.90;;;17.00;63.70;;;;;;4970405;28;20131;-78
2023/12/02 03:53:48;;;;;;;1.90;1.80;;;17.00;63.50;;;;;;4984661;28;20125;-79
2023/12/02 03:56:14;;;;;;;1.63;1.52;;;17.00;63.60;;;;;;4970811;28;20050;-79
2023/12/02 03:58:40;;;;;;;1.60;1.50;;;17.00;63.80;;;;;;4971310;28;20523;-79
2023/12/02 04:01:06;;;;;;;2.10;2.00;;;17.00;63.80;;;;;;4970570;28;20046;-79
2023/12/02 04:03:33;;;;;;;1.50;1.40;;;17.00;63.50;;;;;;4969175;28;20051;-80
2023/12/02 04:05:58;;;;;;;1.83;1.73;;;16.90;63.50;;;;;;4970756;28;20536;-81
2023/12/02 04:08:24;;;;;;;3.63;2.15;;;16.90;63.80;;;;;;4968752;28;20039;-81
2023/12/02 04:10:49;;;;;;;1.70;1.60;;;16.90;64.20;;;;;;4970786;28;20089;-80
2023/12/02 04:13:15;;;;;;;1.77;1.67;;;16.90;63.60;;;;;;4970841;28;20214;-81
2023/12/02 04:15:41;;;;;;;1.70;1.60;;;16.90;63.80;;;;;;4970025;28;20043;-83
2023/12/02 04:18:06;;;;;;;1.80;1.70;;;16.90;63.60;;;;;;4970430;28;20038;-82
2023/12/02 04:20:32;;;;;;;1.67;1.58;;;16.90;63.60;;;;;;4969582;28;20077;-82
2023/12/02 04:22:57;;;;;;;1.80;1.70;;;16.90;63.60;;;;;;4968454;28;20698;-82
2023/12/02 04:25:23;;;;;;;1.70;1.60;;;16.90;63.70;;;;;;4968666;28;20060;-82
2023/12/02 04:27:49;;;;;;;1.60;1.50;;;16.90;63.60;;;;;;4970324;28;20090;-81
2023/12/02 04:30:14;;;;;;;1.88;1.77;;;16.90;63.60;;;;;;4969409;28;20405;-81
2023/12/02 04:32:40;;;;;;;1.70;1.60;;;16.80;63.50;;;;;;4968716;28;20038;-80
2023/12/02 04:35:07;;;;;;;1.50;1.40;;;16.80;63.70;;;;;;4970343;28;20104;-81
2023/12/02 04:37:32;;;;;;;1.63;1.52;;;16.80;63.60;;;;;;4968423;28;20042;-80
2023/12/02 04:39:58;;;;;;;1.50;1.40;;;16.80;63.70;;;;;;4969970;28;20047;-80
2023/12/02 04:42:23;;;;;;;1.75;1.65;;;16.80;63.70;;;;;;4966523;28;20416;-80
2023/12/02 04:44:49;;;;;;;1.60;1.50;;;16.80;63.70;;;;;;4969410;28;20055;-80
2023/12/02 04:47:14;;;;;;;1.80;1.70;;;16.80;64.10;;;;;;4968866;28;20382;-80
2023/12/02 04:49:40;;;;;;;1.73;1.63;;;16.80;63.60;;;;;;4969671;28;20095;-79
2023/12/02 04:52:06;;;;;;;1.58;1.48;;;16.80;64.30;;;;;;4968581;28;20039;-79
2023/12/02 04:54:33;;;;;;;1.42;1.33;;;16.80;63.70;;;;;;4968487;28;20497;-79
2023/12/02 04:57:00;;;;;;;1.50;1.40;;;16.80;63.60;;;;;;4969554;28;20058;-81
2023/12/02 04:59:25;;;;;;;1.50;1.40;;;16.70;63.60;;;;;;4952533;28;20097;-79
2023/12/02 05:01:51;;;;;;;1.30;1.20;;;16.80;63.60;;;;;;4965305;28;20042;-81
2023/12/02 05:04:16;;;;;;;1.42;1.33;;;16.70;64.40;;;;;;4968811;28;20485;-81
2023/12/02 05:06:42;;;;;;;1.50;1.40;;;16.70;63.60;;;;;;4969838;28;20039;-80
2023/12/02 05:09:08;;;;;;;1.70;1.60;;;16.70;64.40;;;;;;4970047;28;20138;-80
2023/12/02 05:11:33;;;;;;;1.45;1.38;;;16.70;63.50;;;;;;4967647;28;20521;-80
2023/12/02 05:13:59;;;;;;;1.60;1.50;;;16.70;63.50;;;;;;4968359;28;20053;-81
2023/12/02 05:16:24;;;;;;;1.83;1.73;;;16.70;63.40;;;;;;4948447;28;20063;-82
2023/12/02 05:18:50;;;;;;;1.55;1.48;;;16.70;63.80;;;;;;4968324;28;20042;-82
2023/12/02 05:21:16;;;;;;;1.25;1.25;;;16.70;63.60;;;;;;4967140;28;20078;-83
2023/12/02 05:23:41;;;;;;;1.60;1.50;;;16.70;63.50;;;;;;4968429;28;20039;-80
2023/12/02 05:26:08;;;;;;;2.53;1.30;;;16.70;63.50;;;;;;4970472;28;20440;-80
2023/12/02 05:28:33;;;;;;;1.58;1.48;;;16.60;63.40;;;;;;4969141;28;20050;-80
2023/12/02 05:30:59;;;;;;;1.80;1.70;;;16.60;63.60;;;;;;4968782;28;20053;-79
2023/12/02 05:33:24;;;;;;;1.90;1.80;;;16.60;63.40;;;;;;4966624;28;20038;-81
2023/12/02 05:35:50;;;;;;;1.17;1.17;;;16.60;63.40;;;;;;4968308;28;20042;-81
2023/12/02 05:38:16;;;;;;;1.67;1.58;;;16.60;63.40;;;;;;4968731;28;20124;-80
2023/12/02 05:40:42;;;;;;;1.50;1.40;;;16.60;63.30;;;;;;4968604;28;20050;-80
2023/12/02 05:43:07;;;;;;;1.20;1.20;;;16.60;63.40;;;;;;4983458;28;20045;-80
2023/12/02 05:45:33;;;;;;;1.55;1.45;;;16.60;63.40;;;;;;4966940;28;20071;-80
2023/12/02 05:47:59;;;;;;;1.42;1.33;;;16.60;63.50;;;;;;4968349;28;20042;-80
2023/12/02 05:50:25;;;;;;;1.30;1.20;;;16.60;63.40;;;;;;4967510;28;20114;-80
2023/12/02 05:52:51;;;;;;;1.42;1.40;;;16.60;63.30;;;;;;4967907;28;20531;-80
2023/12/02 05:55:17;;;;;;;1.75;1.65;;;16.60;63.70;;;;;;4968333;28;20039;-79
2023/12/02 05:57:45;;;;;;;1.42;1.33;;;16.60;63.50;;;;;;4968595;28;20038;-79
2023/12/02 06:00:11;;;;;;;1.25;1.20;;;16.60;63.40;;;;;;4966205;28;20117;-80
2023/12/02 06:02:37;;;;;;;1.40;1.30;;;16.60;63.40;;;;;;4965402;28;20042;-80
2023/12/02 06:05:03;;;;;;;1.17;1.17;;;16.50;63.40;;;;;;4970329;28;20046;-80
2023/12/02 06:07:28;;;;;;;1.15;1.15;;;16.50;63.20;;;;;;4962339;28;20126;-80
2023/12/02 06:09:54;;;;;;;1.30;1.20;;;16.50;63.60;;;;;;4967985;28;20049;-81
2023/12/02 06:12:19;;;;;;;1.33;1.33;;;16.50;63.30;;;;;;4964314;28;20039;-81
2023/12/02 06:14:45;;;;;;;1.60;1.50;;;16.50;64.20;;;;;;4968691;28;20038;-81
2023/12/02 06:17:10;;;;;;;1.15;1.15;;;16.50;63.30;;;;;;4967039;28;20098;-78
2023/12/02 06:19:36;;;;;;;1.45;1.35;;;16.50;63.40;;;;;;4967544;28;20093;-78
2023/12/02 06:22:02;;;;;;;1.48;1.38;;;16.50;63.50;;;;;;4963397;28;20428;-77
2023/12/02 06:24:27;;;;;;;1.17;1.17;;;16.50;63.10;;;;;;4967874;28;20480;-79
2023/12/02 06:26:53;;;;;;;1.50;1.40;;;16.50;63.30;;;;;;4967097;28;20069;-78
2023/12/02 06:29:18;;;;;;;1.55;1.45;;;16.50;63.40;;;;;;4966892;28;20539;-79
2023/12/02 06:31:47;;;;;;;1.77;1.67;;;16.50;63.40;;;;;;4964089;28;20066;-79
2023/12/02 06:34:13;;;;;;;1.35;1.30;;;16.40;63.20;;;;;;4960647;28;20452;-78
2023/12/02 06:36:38;;;;;;;1.70;1.60;;;16.40;63.20;;;;;;4961059;28;20070;-78
2023/12/02 06:39:04;;;;;;;1.70;1.60;;;16.40;63.40;;;;;;4950263;28;20046;-78
2023/12/02 06:41:30;;;;;;;1.65;1.55;;;16.40;63.20;;;;;;4965179;28;20031;-78
2023/12/02 06:43:55;;;;;;;1.55;1.45;;;16.40;63.30;;;;;;4969008;28;20187;-78
2023/12/02 06:46:21;;;;;;;1.52;1.42;;;16.40;63.20;;;;;;4966934;28;20544;-79
2023/12/02 06:48:48;;;;;;;1.65;1.55;;;16.40;63.10;;;;;;4960982;28;20042;-79
2023/12/02 06:51:13;;;;;;;1.70;1.60;;;16.40;63.20;;;;;;4950203;28;20038;-77
2023/12/02 06:53:39;;;;;;;1.40;1.40;;;16.40;63.10;;;;;;4963333;28;20083;-78
2023/12/02 06:56:05;;;;;;;1.42;1.33;;;16.40;63.30;;;;;;4953227;28;20050;-77
2023/12/02 06:58:30;;;;;;;1.60;1.50;;;16.40;63.00;;;;;;4961137;28;20039;-79
2023/12/02 07:00:56;;;;;;;1.70;1.60;;;16.40;63.30;;;;;;4966567;28;20062;-79
2023/12/02 07:03:22;;;;;;;1.48;1.38;;;16.40;63.10;;;;;;4963509;28;20576;-76
2023/12/02 07:05:47;;;;;;;1.65;1.55;;;16.40;63.10;;;;;;4967518;28;20073;-76
2023/12/02 07:08:13;;;;;;;1.80;1.70;;;16.40;63.00;;;;;;4966149;28;20038;-77
2023/12/02 07:10:38;;;;;;;1.75;1.65;;;16.40;63.10;;;;;;4965828;28;20027;-78
2023/12/02 07:13:04;;;;;;;1.63;1.52;;;16.40;63.00;;;;;;4965422;28;20041;-77
2023/12/02 07:15:29;;;;;;;1.95;1.85;;;16.40;63.10;;;;;;4965722;28;20117;-77
2023/12/02 07:17:55;;;;;;;1.75;1.65;;;16.30;63.10;;;;;;4948940;28;20505;-77
2023/12/02 07:20:21;;;;;;;1.80;1.70;;;16.30;62.90;;;;;;4964261;28;20045;-77
2023/12/02 07:22:46;;;;;;;1.58;1.48;;;16.30;63.00;;;;;;4966766;28;20051;-78
2023/12/02 07:25:12;;;;;;;1.58;1.48;;;16.30;63.10;;;;;;4961597;28;20073;-77
2023/12/02 07:27:37;;;;;;;1.80;1.70;;;16.30;63.20;;;;;;4961651;28;20054;-78
2023/12/02 07:30:04;;;;;;;1.70;1.60;;;16.30;63.20;;;;;;4965649;28;20042;-77
2023/12/02 07:32:29;;;;;;;1.67;1.58;;;16.30;63.00;;;;;;4964543;28;20047;-77
2023/12/02 07:34:55;;;;;;;2.00;1.90;;;16.30;62.90;;;;;;4967975;28;20527;-76
2023/12/02 07:37:21;;;;;;;1.70;1.60;;;16.30;63.80;;;;;;4949563;28;20031;-76
2023/12/02 07:39:46;;;;;;;1.90;1.80;;;16.30;63.00;;;;;;4965320;28;20053;-77
2023/12/02 07:42:12;;;;;;;2.00;1.80;;;16.30;63.80;;;;;;4965921;28;20453;-77
2023/12/02 07:44:37;;;;;;;2.00;1.90;;;16.30;63.20;;;;;;4965897;28;20128;-77
2023/12/02 07:47:04;;;;;;;2.05;1.95;;;16.30;62.90;;;;;;4965760;28;20047;-77
2023/12/02 07:49:29;;;;;;;1.92;1.83;;;16.30;62.90;;;;;;4963165;28;20066;-78
2023/12/02 07:51:55;;;;;;;1.88;1.77;;;16.30;63.10;;;;;;4946556;28;20047;-77
2023/12/02 07:54:21;;;;;;;1.98;1.88;;;16.30;62.90;;;;;;4958800;28;20054;-77
2023/12/02 07:56:46;;;;;;;2.10;2.00;;;16.30;63.00;;;;;;4964619;28;20053;-79
2023/12/02 07:59:12;;;;;;;1.70;1.60;;;16.30;63.00;;;;;;4964235;28;20034;-76
2023/12/02 08:01:37;;;;;;;1.92;1.80;;;16.30;63.20;;;;;;4965758;28;20105;-79
2023/12/02 08:04:03;;;;;;;2.08;1.98;;;16.20;63.40;;;;;;4966727;28;20497;-79
2023/12/02 08:06:28;;;;;;;2.33;2.08;;;16.20;62.80;;;;;;4979698;28;20104;-79
2023/12/02 08:08:54;;;;;;;3.38;2.67;;;16.20;62.30;;;;;;4966989;28;20583;-79
2023/12/02 08:11:20;;;;;;;12.27;3.20;;;16.20;62.10;;;;;;4963101;28;20061;-78
2023/12/02 08:13:45;;;;;;;7.28;2.47;;;16.30;62.50;;;;;;4965191;28;20042;-79
2023/12/02 08:16:11;;;;;;;8.68;4.57;;;16.30;62.20;;;;;;4964936;28;20046;-79
2023/12/02 08:18:37;;;;;;;5.00;4.25;;;16.40;62.20;;;;;;4962402;28;20058;-79
2023/12/02 08:21:03;;;;;;;3.97;3.58;;;16.30;62.00;;;;;;4968610;28;20431;-79
2023/12/02 08:23:28;;;;;;;5.90;3.60;;;16.40;62.40;;;;;;4966327;28;20038;-78
2023/12/02 08:25:54;;;;;;;4.78;3.33;;;16.40;62.70;;;;;;4966257;28;20053;-80
2023/12/02 08:28:19;;;;;;;4.50;3.85;;;16.40;62.20;;;;;;4964686;28;20038;-81
2023/12/02 08:30:45;;;;;;;6.18;4.40;;;16.50;63.70;;;;;;4963722;28;20078;-80
2023/12/02 08:33:10;;;;;;;39.05;19.98;;;16.50;64.70;;;;;;4965835;28;20523;-79
2023/12/02 08:35:36;;;;;;;65.90;32.28;;;16.50;65.10;;;;;;4965814;28;20075;-79
2023/12/02 08:38:02;;;;;;;25.98;14.45;;;16.60;66.20;;;;;;4985154;28;20046;-80
2023/12/02 08:40:28;;;;;;;18.52;8.98;;;16.60;66.60;;;;;;4965999;28;20479;-78
2023/12/02 08:42:54;;;;;;;16.85;7.47;;;16.60;67.10;;;;;;4965309;28;20133;-79
2023/12/02 08:45:19;;;;;;;8.98;6.70;;;16.60;67.30;;;;;;4967698;28;20137;-77
2023/12/02 08:47:45;;;;;;;10.30;6.07;;;16.60;68.50;;;;;;4951385;28;20035;-77
2023/12/02 08:50:11;;;;;;;8.00;5.97;;;16.60;68.00;;;;;;4964256;28;20081;-78
2023/12/02 08:52:36;;;;;;;8.98;5.63;;;16.70;68.60;;;;;;4950658;28;20472;-79
2023/12/02 08:55:02;;;;;;;7.65;5.57;;;16.70;68.30;;;;;;4968450;28;20175;-79
2023/12/02 08:57:27;;;;;;;9.63;6.10;;;16.70;68.50;;;;;;4969098;28;20035;-80
2023/12/02 08:59:54;;;;;;;10.63;5.43;;;16.80;68.70;;;;;;4963246;28;20409;-80
2023/12/02 09:02:19;;;;;;;7.88;5.35;;;16.80;69.40;;;;;;4968845;28;20039;-79
2023/12/02 09:04:45;;;;;;;8.82;5.28;;;16.80;69.00;;;;;;4966782;28;20456;-80
2023/12/02 09:07:11;;;;;;;5.88;4.75;;;16.80;69.60;;;;;;4967396;28;20031;-79
2023/12/02 09:09:36;;;;;;;7.00;4.78;;;16.90;69.40;;;;;;4965975;28;20054;-79
2023/12/02 09:12:02;;;;;;;7.05;5.03;;;16.90;69.20;;;;;;4968372;28;20034;-79
2023/12/02 09:14:27;;;;;;;7.45;4.90;;;16.90;69.60;;;;;;4969671;28;20093;-79
2023/12/02 09:16:53;;;;;;;29.40;16.20;;;16.90;69.90;;;;;;4936730;28;20042;-79
2023/12/02 09:19:40;;;;;;;19.48;13.13;;;17.00;70.10;;;;;;4966255;28;20509;-80
2023/12/02 09:22:06;;;;;;;16.30;11.18;;;17.00;70.00;;;;;;4979235;28;20062;-78
2023/12/02 09:24:35;;;;;;;16.65;9.50;;;17.10;70.40;;;;;;4965317;28;20409;-79
2023/12/02 09:27:21;;;;;;;13.40;8.70;;;17.20;70.20;;;;;;4964196;28;20045;-79
2023/12/02 09:29:46;;;;;;;10.70;8.18;;;17.10;70.40;;;;;;4965935;28;20462;-79
2023/12/02 09:32:25;;;;;;;11.00;7.95;;;17.10;70.30;;;;;;4968123;28;21547;-79
2023/12/02 09:34:56;;;;;;;14.02;7.72;;;17.10;69.90;;;;;;4966851;28;20038;-78
2023/12/02 09:37:53;;;;;;;10.85;7.47;;;17.10;69.90;;;;;;4963665;28;20047;-78
2023/12/02 09:40:24;;;;;;;9.45;7.45;;;17.20;70.00;;;;;;4965716;28;20370;-79
2023/12/02 09:43:00;;;;;;;7.57;6.72;;;17.30;69.30;;;;;;4966714;28;20493;-79
2023/12/02 09:45:29;;;;;;;9.77;7.40;;;17.30;70.10;;;;;;4964947;28;20421;-79
2023/12/02 09:48:04;;;;;;;8.20;6.65;;;17.30;69.10;;;;;;4960985;28;20536;-79
2023/12/02 09:50:38;;;;;;;9.38;6.93;;;17.40;69.10;;;;;;4962645;28;20028;-79
2023/12/02 09:53:14;;;;;;;12.02;7.40;;;17.40;69.10;;;;;;4935935;28;20050;-79
2023/12/02 09:55:49;;;;;;;12.38;7.28;;;17.50;69.40;;;;;;4963958;28;20133;-78
2023/12/02 09:58:27;;;;;;;6.95;6.32;;;17.50;68.90;;;;;;4964357;28;20046;-79
2023/12/02 10:01:11;;;;;;;7.25;6.22;;;17.60;68.90;;;;;;4979863;28;20041;-78
2023/12/02 10:03:43;;;;;;;9.30;6.40;;;17.50;69.00;;;;;;4961922;28;20047;-78
2023/12/02 10:06:37;;;;;;;7.75;7.00;;;17.60;70.00;;;;;;4966609;28;20093;-79
2023/12/02 10:09:09;;;;;;;9.15;6.38;;;17.60;69.10;;;;;;4964369;28;20050;-78
2023/12/02 10:11:40;;;;;;;7.18;6.28;;;17.60;68.80;;;;;;4959389;28;20043;-79
2023/12/02 10:14:12;;;;;;;6.65;5.90;;;17.60;68.90;;;;;;4956337;28;20051;-79
2023/12/02 10:16:39;;;;;;;6.38;5.72;;;17.60;69.10;;;;;;4957854;28;20089;-79
2023/12/02 10:19:06;;;;;;;6.88;5.75;;;17.60;69.20;;;;;;4958474;28;20051;-79
2023/12/02 10:21:33;;;;;;;6.43;5.70;;;17.70;68.90;;;;;;4958309;28;20038;-79
2023/12/02 10:24:16;;;;;;;7.07;5.53;;;17.70;68.50;;;;;;4938834;28;20046;-79
2023/12/02 10:27:03;;;;;;;6.13;5.53;;;17.80;68.70;;;;;;4956606;28;20043;-79
2023/12/02 10:29:35;;;;;;;7.30;5.60;;;17.80;68.00;;;;;;4960092;28;20035;-79
2023/12/02 10:32:05;;;;;;;5.97;5.18;;;17.80;67.90;;;;;;4960240;28;20131;-78
2023/12/02 10:34:58;;;;;;;5.60;5.10;;;17.80;68.30;;;;;;4960889;28;20039;-79
2023/12/02 10:37:30;;;;;;;7.95;5.65;;;17.80;66.80;;;;;;4927680;28;20052;-78
2023/12/02 10:39:56;;;;;;;6.28;5.65;;;17.80;66.50;;;;;;4945802;28;20038;-79
2023/12/02 10:42:26;;;;;;;5.90;5.40;;;17.90;66.50;;;;;;4962160;28;20551;-80
2023/12/02 10:44:55;;;;;;;6.88;5.63;;;17.90;66.20;;;;;;4961214;28;20134;-79
2023/12/02 10:47:21;;;;;;;5.47;5.07;;;17.90;66.10;;;;;;4944626;28;20386;-79
2023/12/02 10:49:47;;;;;;;6.88;5.60;;;18.00;66.20;;;;;;4945599;28;20544;-79
2023/12/02 10:52:13;;;;;;;6.60;5.18;;;18.00;65.90;;;;;;4962009;28;20039;-79
2023/12/02 10:54:41;;;;;;;5.65;5.15;;;18.00;65.80;;;;;;4957700;28;20046;-79
2023/12/02 10:57:07;;;;;;;4.93;4.55;;;18.00;65.40;;;;;;4959664;28;20137;-79
2023/12/02 11:00:11;;;;;;;4.72;4.32;;;18.10;65.40;;;;;;4961943;28;20837;-79
2023/12/02 11:02:36;;;;;;;5.57;5.07;;;18.00;65.60;;;;;;4959083;28;20170;-80
2023/12/02 11:05:24;;;;;;;5.85;5.00;;;18.00;65.80;;;;;;4962556;28;20051;-79
2023/12/02 11:07:54;;;;;;;5.07;4.68;;;18.00;65.80;;;;;;4958600;28;20042;-79
2023/12/02 11:10:46;;;;;;;6.75;4.22;;;18.00;65.80;;;;;;4958259;28;20046;-78
2023/12/02 11:13:19;;;;;;;7.78;6.95;;;17.90;66.40;;;;;;4958767;28;20058;-79
2023/12/02 11:15:50;;;;;;;6.43;5.53;;;18.00;66.50;;;;;;4617013;28;9999906;-79
2023/12/02 11:18:22;;;;;;;8.45;6.38;;;18.10;66.20;;;;;;4620810;28;9999908;-80
2023/12/02 11:20:55;;;;;;;12.32;7.00;;;18.10;66.00;;;;;;4937923;28;20058;-79
2023/12/02 11:23:31;;;;;;;7.22;6.53;;;18.10;66.20;;;;;;4966331;28;20042;-81
2023/12/02 11:26:15;;;;;;;11.10;6.80;;;18.10;66.20;;;;;;4951300;28;20520;-80
2023/12/02 11:29:01;;;;;;;7.65;6.95;;;18.10;66.30;;;;;;4957385;28;20083;-80
2023/12/02 11:31:57;;;;;;;6.70;6.00;;;18.20;66.20;;;;;;4960410;28;20038;-82
2023/12/02 11:35:00;;;;;;;6.85;6.25;;;18.30;66.30;;;;;;4978778;28;20117;-84
2023/12/02 11:37:54;;;;;;;6.80;6.20;;;18.30;65.80;;;;;;4957618;28;20062;-81
2023/12/02 11:40:44;;;;;;;7.35;6.65;;;18.30;65.50;;;;;;4959130;28;20599;-81
2023/12/02 11:43:43;;;;;;;8.35;7.55;;;18.40;65.20;;;;;;4959384;28;20159;-81
2023/12/02 11:46:13;;;;;;;7.53;6.75;;;18.40;64.70;;;;;;4960270;28;20528;-80
2023/12/02 11:48:53;;;;;;;9.18;7.45;;;18.40;63.80;;;;;;4959744;28;20046;-77
2023/12/02 11:51:29;;;;;;;12.65;7.60;;;18.60;63.70;;;;;;4953033;28;20031;-77
2023/12/02 11:54:32;;;;;;;7.72;6.90;;;18.80;63.30;;;;;;4967486;28;20493;-79
2023/12/02 11:57:25;;;;;;;9.32;6.97;;;18.80;62.00;;;;;;4966881;28;20058;-79
2023/12/02 12:00:06;;;;;;;7.65;6.95;;;18.80;63.00;;;;;;4968964;28;20097;-79
2023/12/02 12:02:56;;;;;;;8.95;7.28;;;18.90;62.50;;;;;;4964416;28;20050;-79
2023/12/02 12:05:25;;;;;;;10.57;7.68;;;19.00;63.00;;;;;;4965642;28;20067;-80
2023/12/02 12:07:57;;;;;;;6.80;6.20;;;19.10;62.70;;;;;;4962039;28;20035;-80
2023/12/02 12:10:28;;;;;;;9.23;6.65;;;19.30;62.50;;;;;;4966426;28;20046;-77
2023/12/02 12:12:54;;;;;;;6.50;5.93;;;19.50;61.80;;;;;;4967225;28;20039;-78
2023/12/02 12:15:20;;;;;;;7.57;5.65;;;19.50;62.10;;;;;;4965871;28;20460;-79
2023/12/02 12:17:45;;;;;;;6.38;5.88;;;19.60;61.90;;;;;;4953303;28;20074;-78
2023/12/02 12:20:23;;;;;;;6.38;5.78;;;19.60;61.30;;;;;;4969692;28;20056;-78
2023/12/02 12:22:49;;;;;;;7.25;5.75;;;19.70;60.40;;;;;;4966242;28;20126;-79
2023/12/02 12:25:14;;;;;;;6.22;5.70;;;19.70;60.90;;;;;;4966389;28;20505;-78
2023/12/02 12:27:40;;;;;;;6.95;6.28;;;19.80;60.40;;;;;;4964157;28;20050;-79
2023/12/02 12:30:06;;;;;;;5.93;5.53;;;19.90;60.70;;;;;;4964705;28;20082;-79
2023/12/02 12:32:32;;;;;;;6.20;5.70;;;20.00;60.50;;;;;;4965962;28;20035;-81
2023/12/02 12:34:57;;;;;;;5.97;5.43;;;20.10;59.60;;;;;;4969891;28;20038;-80
2023/12/02 12:37:23;;;;;;;6.28;5.47;;;20.10;59.30;;;;;;4949179;28;20925;-80
2023/12/02 12:39:49;;;;;;;14.98;5.00;;;20.00;59.70;;;;;;4967813;28;20050;-80
2023/12/02 12:42:18;;;;;;;5.93;5.30;;;20.10;58.50;;;;;;4965771;28;20043;-80
2023/12/02 12:44:44;;;;;;;5.97;5.47;;;20.30;58.80;;;;;;4968349;28;20051;-80
2023/12/02 12:47:10;;;;;;;6.95;5.10;;;20.40;59.00;;;;;;4966147;28;20703;-80
2023/12/02 12:49:42;;;;;;;6.00;5.60;;;20.50;59.00;;;;;;4970147;28;20035;-80